Time;durP1;ratioP1;P1;durP2;ratioP2;P2;SDS_P1;SDS_P2;PMS_P1;PMS_P2;Temp;Humidity;BMP_temperature;BMP_pressure;BME280_temperature;BME280_humidity;BME280_pressure;Samples;Min_cycle;Max_cycle;Signal;HPM_P1;HPM_P2
2022/03/02 00:00:26;;;;;;;33.67;28.42;;;;;;;4.85;75.22;102579.78;1040570;28;20300;-75
2022/03/02 00:00:58;;;;;;;33.97;29.60;;;;;;;4.90;74.89;102580.22;1043845;28;20302;-77
2022/03/02 00:01:30;;;;;;;36.65;28.90;;;;;;;4.97;74.39;102581.34;1039704;28;20327;-75
2022/03/02 00:02:02;;;;;;;37.72;29.63;;;;;;;5.05;74.15;102581.50;1031623;28;20369;-75
2022/03/02 00:02:34;;;;;;;33.85;28.63;;;;;;;5.08;73.92;102578.59;1032319;28;20304;-76
2022/03/02 00:03:06;;;;;;;37.58;29.38;;;;;;;5.11;74.05;102577.47;1032224;28;20301;-75
2022/03/02 00:03:39;;;;;;;34.22;29.10;;;;;;;5.15;73.46;102576.22;1028879;28;20302;-75
2022/03/02 00:04:10;;;;;;;38.95;29.02;;;;;;;5.10;73.34;102574.00;1031686;28;20302;-75
2022/03/02 00:04:42;;;;;;;40.30;28.05;;;;;;;5.12;73.48;102568.56;1032472;28;20312;-75
2022/03/02 00:05:13;;;;;;;34.03;28.42;;;;;;;5.12;73.35;102574.69;1033097;28;20293;-75
2022/03/02 00:05:45;;;;;;;34.65;28.27;;;;;;;5.11;73.49;102578.31;1035830;28;20305;-75
2022/03/02 00:06:17;;;;;;;32.88;29.08;;;;;;;5.12;73.09;102577.31;1039841;28;20295;-75
2022/03/02 00:06:48;;;;;;;36.88;29.15;;;;;;;5.09;73.39;102569.69;1036194;28;20303;-75
2022/03/02 00:07:20;;;;;;;35.15;29.38;;;;;;;5.11;73.17;102575.66;1035517;28;20308;-75
2022/03/02 00:07:51;;;;;;;37.08;28.05;;;;;;;5.12;73.06;102573.84;1039860;28;20350;-75
2022/03/02 00:08:23;;;;;;;35.65;27.90;;;;;;;5.09;73.60;102574.97;1040399;28;20663;-75
2022/03/02 00:08:55;;;;;;;42.70;28.45;;;;;;;5.07;73.94;102582.19;1043697;28;20778;-75
2022/03/02 00:09:26;;;;;;;35.10;29.13;;;;;;;5.00;74.16;102581.09;1044164;28;20314;-76
2022/03/02 00:09:57;;;;;;;34.47;28.98;;;;;;;5.01;74.72;102577.47;1044139;28;20291;-75
2022/03/02 00:10:29;;;;;;;34.28;28.42;;;;;;;5.02;73.89;102573.84;1043758;28;20709;-76
2022/03/02 00:11:01;;;;;;;39.38;31.02;;;;;;;5.00;74.15;102578.44;1039676;28;20314;-75
2022/03/02 00:11:33;;;;;;;35.42;28.40;;;;;;;4.99;74.09;102579.41;1040001;28;20300;-75
2022/03/02 00:12:04;;;;;;;33.83;28.33;;;;;;;4.98;74.41;102580.38;1035983;28;20304;-75
2022/03/02 00:12:36;;;;;;;36.72;29.42;;;;;;;4.99;73.91;102574.13;1039489;28;20307;-75
2022/03/02 00:13:07;;;;;;;37.33;29.20;;;;;;;4.95;74.07;102578.84;1042127;28;20304;-76
2022/03/02 00:13:40;;;;;;;33.15;27.20;;;;;;;4.98;73.73;102572.47;1040159;28;20296;-77
2022/03/02 00:14:12;;;;;;;34.75;28.63;;;;;;;4.94;73.65;102576.34;1043903;28;20314;-77
2022/03/02 00:14:43;;;;;;;36.63;28.48;;;;;;;4.99;74.25;102576.78;1039456;28;20981;-77
2022/03/02 00:15:15;;;;;;;36.22;28.70;;;;;;;4.97;74.03;102581.34;1035808;28;20289;-76
2022/03/02 00:15:48;;;;;;;32.60;27.55;;;;;;;4.96;73.76;102584.97;1035123;28;20304;-77
2022/03/02 00:16:22;;;;;;;38.83;29.88;;;;;;;5.00;73.76;102581.09;1035930;28;20301;-77
2022/03/02 00:16:54;;;;;;;32.40;26.50;;;;;;;5.05;73.57;102568.28;1040765;28;20351;-77
2022/03/02 00:17:26;;;;;;;34.22;27.15;;;;;;;5.05;73.44;102578.84;1039903;28;20298;-77
2022/03/02 00:17:57;;;;;;;35.00;28.40;;;;;;;5.05;73.88;102580.66;1039524;28;20345;-76
2022/03/02 00:18:29;;;;;;;34.78;28.98;;;;;;;5.03;73.37;102575.53;1040216;28;20311;-77
2022/03/02 00:19:02;;;;;;;38.30;30.15;;;;;;;5.04;73.60;102582.47;1040196;28;20806;-77
2022/03/02 00:19:34;;;;;;;45.97;30.08;;;;;;;5.04;73.41;102566.63;1035606;28;20301;-77
2022/03/02 00:20:06;;;;;;;34.58;29.17;;;;;;;5.05;72.91;102573.56;1035562;28;20297;-76
2022/03/02 00:20:37;;;;;;;39.50;29.45;;;;;;;5.06;72.59;102567.31;1031958;28;20298;-76
2022/03/02 00:21:09;;;;;;;38.95;30.30;;;;;;;5.05;72.61;102568.28;1036130;28;20289;-78
2022/03/02 00:21:41;;;;;;;37.35;29.33;;;;;;;5.03;72.84;102574.69;1035322;28;20822;-77
2022/03/02 00:22:12;;;;;;;42.58;30.30;;;;;;;5.01;72.59;102564.25;1031863;28;20305;-76
2022/03/02 00:22:44;;;;;;;36.92;29.58;;;;;;;5.04;72.74;102565.78;1031601;28;20324;-76
2022/03/02 00:23:16;;;;;;;38.53;29.02;;;;;;;5.01;72.60;102566.91;1032398;28;20800;-76
2022/03/02 00:23:47;;;;;;;40.53;29.88;;;;;;;5.03;72.78;102564.97;1035961;28;20297;-77
2022/03/02 00:24:20;;;;;;;36.75;28.65;;;;;;;5.00;72.69;102572.31;1032118;28;20310;-76
2022/03/02 00:24:52;;;;;;;35.03;29.17;;;;;;;5.00;72.32;102567.88;1035454;28;20699;-77
2022/03/02 00:25:23;;;;;;;39.63;29.80;;;;;;;4.99;72.52;102568.84;1032196;28;20313;-77
2022/03/02 00:25:56;;;;;;;41.42;30.00;;;;;;;5.01;71.97;102566.91;1028255;28;20330;-76
2022/03/02 00:26:27;;;;;;;36.60;28.92;;;;;;;5.00;72.42;102562.59;1028121;28;20381;-75
2022/03/02 00:26:59;;;;;;;35.03;30.40;;;;;;;5.01;72.17;102564.25;1027932;28;20305;-76
2022/03/02 00:27:31;;;;;;;36.88;29.83;;;;;;;5.01;72.81;102566.91;1032099;28;20376;-75
2022/03/02 00:28:03;;;;;;;39.55;28.80;;;;;;;4.99;73.02;102568.84;1032347;28;20357;-76
2022/03/02 00:28:35;;;;;;;36.55;30.08;;;;;;;4.97;72.32;102560.22;1035624;28;20316;-76
2022/03/02 00:29:06;;;;;;;35.47;28.88;;;;;;;4.88;72.73;102564.50;1035660;28;20308;-76
2022/03/02 00:29:38;;;;;;;38.75;29.55;;;;;;;4.89;73.38;102567.97;1036518;28;20303;-75
2022/03/02 00:30:10;;;;;;;38.03;29.38;;;;;;;4.94;72.46;102550.78;1035136;28;20309;-76
2022/03/02 00:30:44;;;;;;;38.33;29.30;;;;;;;5.00;72.09;102553.84;1031978;28;20293;-76
2022/03/02 00:31:16;;;;;;;42.97;30.05;;;;;;;4.99;71.63;102553.00;1036378;28;20324;-76
2022/03/02 00:31:47;;;;;;;40.58;30.65;;;;;;;4.99;71.63;102541.59;1040564;28;20299;-76
2022/03/02 00:32:19;;;;;;;37.90;30.13;;;;;;;5.02;71.94;102551.91;1039950;28;20300;-75
2022/03/02 00:32:51;;;;;;;44.35;29.83;;;;;;;4.95;71.97;102560.38;1035536;28;20316;-76
2022/03/02 00:33:23;;;;;;;35.25;29.15;;;;;;;4.90;71.85;102548.53;1031472;28;20297;-76
2022/03/02 00:33:54;;;;;;;36.15;29.80;;;;;;;4.92;71.86;102549.22;1032139;28;20293;-76
2022/03/02 00:34:27;;;;;;;38.88;29.25;;;;;;;4.96;72.26;102553.28;1035861;28;20300;-76
2022/03/02 00:34:59;;;;;;;38.67;30.13;;;;;;;4.95;71.67;102551.63;1040114;28;20815;-74
2022/03/02 00:35:30;;;;;;;36.55;29.35;;;;;;;4.94;71.71;102550.78;1040354;28;20351;-76
2022/03/02 00:36:03;;;;;;;36.80;30.77;;;;;;;4.96;72.00;102558.56;1039393;28;20308;-75
2022/03/02 00:36:35;;;;;;;39.40;31.30;;;;;;;4.93;71.73;102543.84;1035578;28;20304;-75
2022/03/02 00:37:06;;;;;;;37.53;30.48;;;;;;;4.95;72.60;102556.91;1032239;28;20289;-76
2022/03/02 00:37:38;;;;;;;42.92;31.80;;;;;;;4.88;72.93;102555.75;1032018;28;20832;-76
2022/03/02 00:38:10;;;;;;;35.65;30.27;;;;;;;4.86;73.40;102560.34;1036083;28;20422;-75
2022/03/02 00:38:42;;;;;;;39.08;30.67;;;;;;;4.84;73.42;102562.28;1032308;28;20301;-76
2022/03/02 00:39:14;;;;;;;37.30;29.05;;;;;;;4.89;72.53;102560.06;1036206;28;20308;-76
2022/03/02 00:39:46;;;;;;;36.40;28.77;;;;;;;4.90;72.35;102553.81;1035598;28;20297;-75
2022/03/02 00:40:17;;;;;;;39.78;29.48;;;;;;;4.91;71.71;102552.84;1036608;28;20301;-76
2022/03/02 00:40:49;;;;;;;37.30;29.90;;;;;;;4.87;72.28;102554.91;1039869;28;20370;-75
2022/03/02 00:41:21;;;;;;;36.88;28.95;;;;;;;4.81;72.58;102552.81;1035772;28;20316;-75
2022/03/02 00:41:52;;;;;;;49.10;30.10;;;;;;;4.86;72.43;102557.69;1038956;28;20310;-76
2022/03/02 00:42:24;;;;;;;40.63;30.63;;;;;;;4.90;72.41;102556.44;1040157;28;20317;-76
2022/03/02 00:42:56;;;;;;;39.03;29.63;;;;;;;4.91;72.31;102555.47;1039939;28;20304;-76
2022/03/02 00:43:27;;;;;;;39.17;29.73;;;;;;;4.91;72.33;102550.19;1039243;28;20307;-75
2022/03/02 00:43:59;;;;;;;34.03;28.38;;;;;;;4.91;72.68;102558.94;1031540;28;20313;-76
2022/03/02 00:44:31;;;;;;;36.35;30.25;;;;;;;4.91;72.68;102551.03;1035959;28;20854;-77
2022/03/02 00:45:03;;;;;;;39.97;30.40;;;;;;;4.90;72.89;102554.63;1035480;28;20328;-77
2022/03/02 00:45:35;;;;;;;37.90;30.05;;;;;;;4.94;72.91;102560.50;1035187;28;20370;-76
2022/03/02 00:46:07;;;;;;;40.83;30.70;;;;;;;4.94;72.77;102555.22;1034858;28;20305;-77
2022/03/02 00:46:41;;;;;;;35.60;29.27;;;;;;;4.93;72.43;102559.69;1027978;28;20318;-77
2022/03/02 00:47:12;;;;;;;43.83;31.08;;;;;;;4.93;72.91;102564.09;1032245;28;20312;-76
2022/03/02 00:47:45;;;;;;;40.97;29.70;;;;;;;4.86;73.58;102565.63;1036329;28;20312;-77
2022/03/02 00:48:17;;;;;;;38.22;29.83;;;;;;;4.81;74.04;102571.31;1037156;28;20383;-77
2022/03/02 00:48:49;;;;;;;39.83;30.23;;;;;;;4.80;74.64;102568.81;1034548;28;20303;-76
2022/03/02 00:49:26;;;;;;;40.80;30.15;;;;;;;4.79;75.15;102575.06;1034869;28;20700;-76
2022/03/02 00:49:58;;;;;;;36.53;29.83;;;;;;;4.75;75.31;102581.59;1032034;28;20305;-75
2022/03/02 00:50:30;;;;;;;38.25;29.80;;;;;;;4.74;75.13;102572.84;1036668;28;20297;-75
2022/03/02 00:51:02;;;;;;;38.22;31.73;;;;;;;4.76;74.59;102570.06;1040550;28;20310;-76
2022/03/02 00:51:34;;;;;;;39.13;30.33;;;;;;;4.73;74.26;102567.69;1043440;28;20710;-75
2022/03/02 00:52:09;;;;;;;38.45;29.80;;;;;;;4.71;73.96;102565.19;1039436;28;20722;-76
2022/03/02 00:52:41;;;;;;;36.67;29.70;;;;;;;4.74;74.18;102562.28;1038446;28;20303;-76
2022/03/02 00:53:13;;;;;;;34.88;28.15;;;;;;;4.75;74.05;102563.09;1039590;28;20303;-76
2022/03/02 00:53:45;;;;;;;36.20;29.38;;;;;;;4.83;73.82;102557.97;1039307;28;20794;-76
2022/03/02 00:54:16;;;;;;;39.92;30.70;;;;;;;4.80;72.92;102555.59;1040845;28;20296;-76
2022/03/02 00:54:48;;;;;;;38.83;30.38;;;;;;;4.77;72.81;102553.25;1039271;28;20307;-76
2022/03/02 00:55:19;;;;;;;33.90;28.58;;;;;;;4.76;73.31;102556.84;1039545;28;20378;-77
2022/03/02 00:55:51;;;;;;;40.30;30.83;;;;;;;4.74;73.77;102564.91;1039517;28;20299;-77
2022/03/02 00:56:22;;;;;;;40.97;30.00;;;;;;;4.78;73.85;102561.03;1040039;28;20308;-77
2022/03/02 00:56:54;;;;;;;40.55;30.10;;;;;;;4.78;73.77;102557.56;1034855;28;20379;-77
2022/03/02 00:57:26;;;;;;;42.65;29.92;;;;;;;4.83;73.64;102555.34;1031723;28;20355;-77
2022/03/02 00:57:58;;;;;;;39.83;30.02;;;;;;;4.80;74.51;102568.81;1037063;28;20336;-77
2022/03/02 00:58:30;;;;;;;37.33;30.73;;;;;;;4.81;74.62;102571.31;1035921;28;20296;-77
2022/03/02 00:59:02;;;;;;;38.75;30.55;;;;;;;4.78;75.43;102566.31;1036345;28;20824;-77
2022/03/02 00:59:34;;;;;;;37.70;31.67;;;;;;;4.78;75.39;102571.59;1043041;28;20706;-77
2022/03/02 01:00:06;;;;;;;40.65;31.02;;;;;;;4.75;74.99;102563.09;1035900;28;20783;-77
2022/03/02 01:00:38;;;;;;;37.10;30.60;;;;;;;4.76;75.01;102567.41;1031756;28;20297;-77
2022/03/02 01:01:10;;;;;;;40.55;33.28;;;;;;;4.75;74.87;102563.09;1035439;28;20301;-77
2022/03/02 01:01:42;;;;;;;38.03;30.10;;;;;;;4.79;74.69;102557.41;1028090;28;20317;-77
2022/03/02 01:02:14;;;;;;;43.05;30.40;;;;;;;4.77;74.08;102555.88;1024275;28;20314;-76
2022/03/02 01:02:46;;;;;;;39.40;29.70;;;;;;;4.76;73.71;102546.28;1031434;28;20300;-75
2022/03/02 01:03:17;;;;;;;43.22;30.17;;;;;;;4.77;73.20;102548.78;1032478;28;20312;-76
2022/03/02 01:03:49;;;;;;;35.65;28.85;;;;;;;4.76;72.53;102543.66;1036387;28;20300;-76
2022/03/02 01:04:20;;;;;;;38.65;30.05;;;;;;;4.67;73.37;102542.69;1035354;28;20299;-75
2022/03/02 01:04:52;;;;;;;40.97;29.98;;;;;;;4.67;73.92;102549.75;1035677;28;20771;-76
2022/03/02 01:05:24;;;;;;;37.55;28.98;;;;;;;4.59;73.96;102545.97;1031735;28;20708;-76
2022/03/02 01:05:55;;;;;;;38.42;29.48;;;;;;;4.60;75.19;102562.63;1032642;28;20377;-76
2022/03/02 01:06:27;;;;;;;39.05;30.13;;;;;;;4.57;75.16;102563.75;1035484;28;20308;-76
2022/03/02 01:06:59;;;;;;;36.60;30.00;;;;;;;4.61;75.69;102557.22;1035897;28;20304;-76
2022/03/02 01:07:30;;;;;;;34.42;29.20;;;;;;;4.65;75.67;102558.63;1039996;28;20303;-76
2022/03/02 01:08:02;;;;;;;43.65;31.75;;;;;;;4.63;75.53;102563.19;1043710;28;20291;-77
2022/03/02 01:08:33;;;;;;;35.90;31.00;;;;;;;4.64;75.42;102559.59;1043819;28;20287;-78
2022/03/02 01:09:06;;;;;;;31.02;27.42;;;;;;;4.73;74.89;102551.84;1039456;28;20403;-77
2022/03/02 01:09:38;;;;;;;40.85;32.70;;;;;;;4.77;74.44;102554.06;1039241;28;20318;-77
2022/03/02 01:10:10;;;;;;;38.83;28.17;;;;;;;4.74;73.67;102545.59;1040423;28;20296;-77
2022/03/02 01:10:41;;;;;;;36.03;28.92;;;;;;;4.67;75.04;102563.78;1040089;28;20300;-77
2022/03/02 01:11:13;;;;;;;38.20;30.27;;;;;;;4.65;75.52;102560.44;1035282;28;20301;-77
2022/03/02 01:11:44;;;;;;;36.55;30.20;;;;;;;4.67;75.61;102561.16;1035361;28;20292;-77
2022/03/02 01:12:16;;;;;;;35.83;29.83;;;;;;;4.58;76.37;102565.41;1035845;28;20452;-77
2022/03/02 01:12:48;;;;;;;37.85;28.65;;;;;;;4.55;77.39;102570.97;1036230;28;20304;-77
2022/03/02 01:13:20;;;;;;;42.72;29.73;;;;;;;4.51;77.46;102577.47;1039667;28;20300;-77
2022/03/02 01:13:51;;;;;;;39.47;28.52;;;;;;;4.50;77.79;102578.44;1035442;28;20807;-77
2022/03/02 01:14:23;;;;;;;37.20;27.90;;;;;;;4.48;78.36;102584.84;1027818;28;20298;-77
2022/03/02 01:14:55;;;;;;;33.60;29.73;;;;;;;4.37;78.92;102580.47;1031470;28;20385;-77
2022/03/02 01:15:26;;;;;;;38.05;29.30;;;;;;;4.34;79.06;102584.22;1035824;28;20360;-77
2022/03/02 01:15:58;;;;;;;36.33;28.75;;;;;;;4.37;79.23;102582.28;1040139;28;20296;-77
2022/03/02 01:16:30;;;;;;;36.22;29.02;;;;;;;4.31;79.25;102588.91;1043902;28;20306;-77
2022/03/02 01:17:02;;;;;;;31.73;27.05;;;;;;;4.25;80.42;102592.94;1043906;28;20306;-77
2022/03/02 01:17:33;;;;;;;34.53;29.38;;;;;;;4.24;80.87;102595.69;1043105;28;20291;-77
2022/03/02 01:18:05;;;;;;;35.92;28.83;;;;;;;4.31;81.00;102591.56;1039240;28;20803;-77
2022/03/02 01:18:36;;;;;;;34.08;29.02;;;;;;;4.50;80.76;102589.00;1039693;28;20724;-77
2022/03/02 01:19:08;;;;;;;33.97;29.38;;;;;;;4.53;79.72;102578.19;1031691;28;20304;-77
2022/03/02 01:19:40;;;;;;;37.38;29.45;;;;;;;4.57;79.55;102584.84;1031428;28;20313;-77
2022/03/02 01:20:12;;;;;;;34.40;28.35;;;;;;;4.64;78.81;102578.06;1031639;28;20309;-77
2022/03/02 01:20:44;;;;;;;41.25;29.90;;;;;;;4.67;78.62;102573.50;1027986;28;20313;-75
2022/03/02 01:21:16;;;;;;;37.22;29.90;;;;;;;4.72;78.40;102571.31;1032363;28;20305;-76
2022/03/02 01:21:47;;;;;;;35.78;29.85;;;;;;;4.77;77.74;102563.81;1036106;28;20307;-76
2022/03/02 01:22:19;;;;;;;35.58;30.15;;;;;;;4.88;76.82;102561.03;1039532;28;20295;-76
2022/03/02 01:22:50;;;;;;;34.53;28.77;;;;;;;4.82;76.39;102553.66;1035732;28;20308;-76
2022/03/02 01:23:23;;;;;;;37.63;29.30;;;;;;;4.80;76.25;102552.97;1039901;28;20811;-76
2022/03/02 01:23:56;;;;;;;38.05;28.80;;;;;;;4.80;75.35;102547.69;1035630;28;20296;-77
2022/03/02 01:24:28;;;;;;;36.70;28.13;;;;;;;4.81;75.49;102544.91;1031905;28;20308;-76
2022/03/02 01:25:00;;;;;;;34.97;28.27;;;;;;;4.83;75.18;102547.41;1035215;28;20301;-76
2022/03/02 01:25:32;;;;;;;36.45;29.13;;;;;;;4.85;74.63;102548.09;1033110;28;20792;-76
2022/03/02 01:26:04;;;;;;;34.58;29.35;;;;;;;4.89;74.60;102541.56;1040291;28;20296;-77
2022/03/02 01:26:36;;;;;;;31.50;28.10;;;;;;;4.89;73.99;102538.94;1035437;28;20293;-76
2022/03/02 01:27:07;;;;;;;34.42;29.77;;;;;;;4.88;73.89;102543.38;1031656;28;20717;-77
2022/03/02 01:27:39;;;;;;;34.85;28.85;;;;;;;4.86;73.97;102539.22;1035365;28;20331;-76
2022/03/02 01:28:11;;;;;;;39.78;31.00;;;;;;;4.84;74.27;102546.44;1036596;28;20304;-77
2022/03/02 01:28:42;;;;;;;34.85;28.35;;;;;;;4.80;74.85;102547.69;1039793;28;20303;-76
2022/03/02 01:29:14;;;;;;;36.40;29.40;;;;;;;4.79;74.70;102551.31;1043865;28;20287;-75
2022/03/02 01:29:46;;;;;;;36.88;29.52;;;;;;;4.82;74.96;102545.75;1039638;28;20299;-76
2022/03/02 01:30:17;;;;;;;38.35;29.38;;;;;;;4.92;74.47;102546.59;1035409;28;20304;-76
2022/03/02 01:30:49;;;;;;;37.72;29.50;;;;;;;4.94;74.41;102548.13;1039744;28;20303;-76
2022/03/02 01:31:25;;;;;;;33.28;28.65;;;;;;;4.90;73.78;102535.31;1036123;28;20795;-75
2022/03/02 01:31:57;;;;;;;34.97;29.05;;;;;;;4.90;74.09;102540.59;1036668;28;20289;-76
2022/03/02 01:32:29;;;;;;;41.03;31.45;;;;;;;4.96;73.75;102540.09;1039287;28;20311;-76
2022/03/02 01:33:01;;;;;;;39.70;29.92;;;;;;;4.96;73.86;102537.44;1036514;28;20293;-75
2022/03/02 01:33:33;;;;;;;37.22;30.25;;;;;;;4.94;72.95;102534.94;1040309;28;20298;-76
2022/03/02 01:34:04;;;;;;;40.97;30.38;;;;;;;4.89;73.53;102534.50;1043680;28;20782;-76
2022/03/02 01:34:37;;;;;;;41.22;31.70;;;;;;;4.85;73.52;102541.03;1043477;28;20786;-76
2022/03/02 01:35:11;;;;;;;34.63;29.35;;;;;;;4.82;74.19;102535.19;1039742;28;20350;-76
2022/03/02 01:35:43;;;;;;;31.48;27.70;;;;;;;4.81;74.74;102536.16;1035273;28;20315;-76
2022/03/02 01:36:14;;;;;;;34.38;29.05;;;;;;;4.72;74.89;102540.47;1032278;28;20311;-76
2022/03/02 01:36:46;;;;;;;37.75;30.45;;;;;;;4.58;76.12;102543.47;1032222;28;20302;-76
2022/03/02 01:37:18;;;;;;;35.05;30.27;;;;;;;4.66;76.35;102556.84;1032468;28;20955;-76
2022/03/02 01:37:50;;;;;;;39.58;29.77;;;;;;;4.65;75.37;102542.78;1039845;28;20327;-76
2022/03/02 01:38:22;;;;;;;38.33;29.77;;;;;;;4.70;74.66;102533.66;1039830;28;20859;-76
2022/03/02 01:38:53;;;;;;;35.20;28.80;;;;;;;4.58;75.05;102532.91;1039954;28;20296;-76
2022/03/02 01:39:25;;;;;;;35.08;29.10;;;;;;;4.63;75.38;102531.53;1042907;28;20291;-76
2022/03/02 01:39:57;;;;;;;36.88;30.20;;;;;;;4.69;75.19;102534.63;1044074;28;20295;-76
2022/03/02 01:40:29;;;;;;;37.08;30.23;;;;;;;4.65;73.89;102534.88;1047845;28;20337;-76
2022/03/02 01:41:00;;;;;;;36.10;29.23;;;;;;;4.63;74.16;102526.25;1047647;28;20295;-76
2022/03/02 01:41:32;;;;;;;33.95;29.33;;;;;;;4.68;74.14;102527.69;1047092;28;20330;-75
2022/03/02 01:42:05;;;;;;;34.15;29.00;;;;;;;4.69;74.30;102521.44;1043615;28;20306;-76
2022/03/02 01:42:39;;;;;;;37.80;28.67;;;;;;;4.71;74.20;102522.13;1033683;28;20781;-75
2022/03/02 01:43:12;;;;;;;36.30;28.67;;;;;;;4.72;74.10;102526.44;1035314;28;20312;-76
2022/03/02 01:43:45;;;;;;;33.70;28.60;;;;;;;4.73;73.87;102520.19;1031256;28;20309;-76
2022/03/02 01:44:17;;;;;;;37.58;29.63;;;;;;;4.75;73.68;102523.50;1029764;28;20416;-76
2022/03/02 01:44:49;;;;;;;36.75;28.42;;;;;;;4.79;73.19;102515.19;1028351;28;20376;-77
2022/03/02 01:45:21;;;;;;;38.45;30.08;;;;;;;4.79;73.35;102514.34;1032261;28;20316;-77
2022/03/02 01:45:53;;;;;;;37.38;29.08;;;;;;;4.78;73.21;102513.50;1036745;28;20301;-77
2022/03/02 01:46:25;;;;;;;37.95;30.58;;;;;;;4.82;73.20;102508.78;1032358;28;20874;-77
2022/03/02 01:46:57;;;;;;;40.92;28.15;;;;;;;4.91;72.20;102510.59;1036045;28;20311;-75
2022/03/02 01:47:28;;;;;;;37.10;29.52;;;;;;;4.90;72.48;102506.28;1032640;28;20799;-75
2022/03/02 01:48:01;;;;;;;33.60;29.27;;;;;;;4.94;71.91;102503.25;1037463;28;20300;-76
2022/03/02 01:48:33;;;;;;;34.47;27.50;;;;;;;4.91;71.95;102502.66;1040242;28;20827;-76
2022/03/02 01:49:05;;;;;;;34.60;27.98;;;;;;;4.91;72.13;102500.03;1036646;28;20649;-75
2022/03/02 01:49:36;;;;;;;38.92;29.10;;;;;;;4.92;72.42;102506.97;1040077;28;20299;-75
2022/03/02 01:50:11;;;;;;;43.53;31.52;;;;;;;4.89;72.71;102499.34;1040602;28;20296;-76
2022/03/02 01:50:42;;;;;;;39.38;29.63;;;;;;;4.90;72.61;102503.63;1036953;28;20303;-76
2022/03/02 01:51:14;;;;;;;39.20;28.90;;;;;;;4.94;71.97;102507.69;1036843;28;20305;-76
2022/03/02 01:51:46;;;;;;;34.53;28.23;;;;;;;4.91;72.19;102507.94;1036470;28;20374;-76
2022/03/02 01:52:17;;;;;;;35.53;28.70;;;;;;;4.92;72.22;102505.16;1034056;28;20301;-76
2022/03/02 01:52:49;;;;;;;39.75;29.77;;;;;;;4.92;72.33;102505.16;1036548;28;20800;-76
2022/03/02 01:53:20;;;;;;;40.90;30.08;;;;;;;4.96;72.00;102500.47;1040738;28;20382;-76
2022/03/02 01:53:52;;;;;;;36.28;30.80;;;;;;;4.99;71.72;102500.19;1040099;28;20296;-76
2022/03/02 01:54:24;;;;;;;41.92;29.73;;;;;;;4.96;72.08;102495.19;1036167;28;20347;-76
2022/03/02 01:54:55;;;;;;;33.97;27.20;;;;;;;4.93;72.14;102506.00;1032053;28;20821;-76
2022/03/02 01:55:27;;;;;;;33.88;29.58;;;;;;;4.91;72.27;102507.94;1029184;28;20298;-76
2022/03/02 01:55:59;;;;;;;36.15;29.00;;;;;;;4.87;72.57;102506.56;1032267;28;20309;-76
2022/03/02 01:56:32;;;;;;;43.35;29.35;;;;;;;4.87;73.00;102511.84;1036752;28;20386;-76
2022/03/02 01:57:04;;;;;;;39.33;29.75;;;;;;;4.86;73.02;102510.16;1036695;28;20292;-75
2022/03/02 01:57:35;;;;;;;39.38;29.83;;;;;;;4.76;73.56;102515.44;1041377;28;20296;-76
2022/03/02 01:58:08;;;;;;;33.72;29.90;;;;;;;4.78;74.05;102515.31;1040167;28;20834;-76
2022/03/02 01:58:39;;;;;;;36.00;29.45;;;;;;;4.81;74.80;102520.31;1036808;28;20304;-76
2022/03/02 01:59:11;;;;;;;33.10;29.02;;;;;;;4.80;74.44;102513.38;1035779;28;20292;-76
2022/03/02 01:59:45;;;;;;;37.60;29.38;;;;;;;4.80;74.30;102510.72;1033236;28;20301;-76
2022/03/02 02:00:20;;;;;;;37.20;29.90;;;;;;;4.82;74.24;102508.78;1032758;28;20305;-75
2022/03/02 02:00:52;;;;;;;35.95;29.17;;;;;;;4.81;74.11;102512.41;1037480;28;20300;-76
2022/03/02 02:01:24;;;;;;;35.97;29.15;;;;;;;4.80;74.63;102505.44;1037619;28;20387;-76
2022/03/02 02:01:56;;;;;;;35.40;29.20;;;;;;;4.78;74.65;102512.69;1037515;28;20300;-76
2022/03/02 02:02:28;;;;;;;39.33;29.60;;;;;;;4.82;75.50;102519.34;1039813;28;20299;-75
2022/03/02 02:03:00;;;;;;;38.00;30.40;;;;;;;4.85;75.68;102519.91;1036888;28;20375;-76
2022/03/02 02:03:35;;;;;;;33.72;29.25;;;;;;;4.85;76.16;102525.19;1041078;28;20362;-75
2022/03/02 02:04:07;;;;;;;38.75;29.60;;;;;;;4.85;76.43;102529.63;1044579;28;20326;-76
2022/03/02 02:04:39;;;;;;;38.58;29.63;;;;;;;4.82;77.12;102533.38;1037170;28;20312;-76
2022/03/02 02:05:10;;;;;;;39.80;30.30;;;;;;;4.85;77.00;102534.91;1036194;28;20293;-76
2022/03/02 02:05:42;;;;;;;35.08;30.05;;;;;;;4.84;77.16;102530.59;1032041;28;20298;-76
2022/03/02 02:06:14;;;;;;;35.85;28.60;;;;;;;4.83;77.54;102528.94;1032948;28;20312;-76
2022/03/02 02:06:46;;;;;;;37.45;31.10;;;;;;;4.79;77.02;102530.19;1040282;28;20299;-76
2022/03/02 02:07:17;;;;;;;38.10;31.02;;;;;;;4.76;77.08;102527.81;1040235;28;20672;-76
2022/03/02 02:07:50;;;;;;;40.58;30.05;;;;;;;4.72;77.31;102526.44;1040865;28;20807;-76
2022/03/02 02:08:21;;;;;;;36.33;29.05;;;;;;;4.69;77.18;102519.63;1040115;28;20664;-76
2022/03/02 02:08:53;;;;;;;38.47;31.10;;;;;;;4.72;76.89;102529.06;1032035;28;20289;-76
2022/03/02 02:09:25;;;;;;;37.22;31.05;;;;;;;4.73;76.86;102526.28;1029890;28;20297;-76
2022/03/02 02:09:57;;;;;;;37.85;31.00;;;;;;;4.70;76.40;102521.28;1032529;28;20312;-77
2022/03/02 02:10:29;;;;;;;34.70;30.73;;;;;;;4.73;76.33;102520.19;1033014;28;20325;-76
2022/03/02 02:11:01;;;;;;;36.60;31.38;;;;;;;4.73;76.09;102525.47;1040957;28;20296;-76
2022/03/02 02:11:32;;;;;;;38.65;30.60;;;;;;;4.71;75.50;102519.47;1044114;28;20319;-77
2022/03/02 02:12:04;;;;;;;37.40;30.15;;;;;;;4.69;75.19;102519.63;1040619;28;20299;-77
2022/03/02 02:12:36;;;;;;;38.05;29.13;;;;;;;4.73;74.74;102509.63;1036090;28;20304;-76
2022/03/02 02:13:09;;;;;;;35.25;29.83;;;;;;;4.65;75.10;102513.75;1031941;28;20301;-77
2022/03/02 02:13:41;;;;;;;38.33;31.15;;;;;;;4.66;75.17;102509.34;1032573;28;20827;-77
2022/03/02 02:14:12;;;;;;;38.03;29.90;;;;;;;4.57;75.91;102520.69;1032593;28;20304;-77
2022/03/02 02:14:44;;;;;;;37.88;30.10;;;;;;;4.56;76.74;102522.50;1036713;28;20293;-77
2022/03/02 02:15:16;;;;;;;37.10;30.25;;;;;;;4.56;76.72;102521.66;1035931;28;20797;-77
2022/03/02 02:15:47;;;;;;;37.08;30.65;;;;;;;4.59;76.23;102511.66;1036331;28;20296;-77
2022/03/02 02:16:20;;;;;;;36.25;30.85;;;;;;;4.64;75.43;102511.25;1036835;28;20391;-77
2022/03/02 02:16:52;;;;;;;35.15;30.00;;;;;;;4.69;75.42;102510.88;1040050;28;20303;-77
2022/03/02 02:17:24;;;;;;;36.75;30.52;;;;;;;4.72;74.80;102502.66;1043314;28;20299;-77
2022/03/02 02:17:56;;;;;;;37.97;30.13;;;;;;;4.73;74.77;102509.63;1045160;28;20299;-76
2022/03/02 02:18:27;;;;;;;38.45;31.10;;;;;;;4.67;74.72;102510.16;1048563;28;20298;-76
2022/03/02 02:18:59;;;;;;;41.90;31.42;;;;;;;4.72;74.40;102505.31;1044087;28;20299;-76
2022/03/02 02:19:30;;;;;;;37.40;30.17;;;;;;;4.68;74.74;102506.56;1044308;28;20664;-77
2022/03/02 02:20:04;;;;;;;38.47;30.42;;;;;;;4.71;74.84;102511.56;1044148;28;20302;-77
2022/03/02 02:20:37;;;;;;;41.47;29.55;;;;;;;4.76;74.59;102509.34;1036213;28;20719;-76
2022/03/02 02:21:10;;;;;;;41.10;29.65;;;;;;;4.77;74.49;102505.72;1036876;28;20665;-76
2022/03/02 02:21:41;;;;;;;37.00;29.63;;;;;;;4.77;74.29;102513.66;1035824;28;20296;-76
2022/03/02 02:22:13;;;;;;;37.03;30.45;;;;;;;4.73;74.63;102506.97;1033451;28;20714;-77
2022/03/02 02:22:46;;;;;;;33.20;28.48;;;;;;;4.73;74.54;102504.34;1035943;28;20308;-77
2022/03/02 02:23:18;;;;;;;39.67;29.42;;;;;;;4.80;74.39;102506.28;1032442;28;20316;-77
2022/03/02 02:23:50;;;;;;;35.38;29.92;;;;;;;4.73;75.07;102509.63;1036947;28;20318;-77
2022/03/02 02:24:24;;;;;;;35.47;28.88;;;;;;;4.61;75.66;102515.00;1040811;28;20303;-77
2022/03/02 02:24:55;;;;;;;34.38;29.33;;;;;;;4.70;75.40;102523.09;1040887;28;20306;-77
2022/03/02 02:25:27;;;;;;;31.27;27.88;;;;;;;4.76;75.66;102517.25;1044093;28;20337;-75
2022/03/02 02:25:58;;;;;;;39.15;30.98;;;;;;;4.75;75.33;102508.50;1044198;28;20303;-76
2022/03/02 02:26:30;;;;;;;40.95;29.20;;;;;;;4.77;75.17;102511.84;1045085;28;20306;-76
2022/03/02 02:27:02;;;;;;;38.40;29.70;;;;;;;4.78;74.32;102512.69;1044070;28;20345;-76